Time;durP1;ratioP1;P1;durP2;ratioP2;P2;SDS_P1;SDS_P2;PMS_P1;PMS_P2;Temp;Humidity;BMP_temperature;BMP_pressure;BME280_temperature;BME280_humidity;BME280_pressure;Samples;Min_cycle;Max_cycle;Signal;HPM_P1;HPM_P2
2023/08/08 00:00:54;;;;;;;475.10;455.90;;;12.40;99.90;;;;;;5012884;28;20496;-68
2023/08/08 00:03:21;;;;;;;505.53;484.47;;;12.40;99.90;;;;;;5012979;28;20453;-68
2023/08/08 00:05:48;;;;;;;504.33;482.83;;;12.30;99.90;;;;;;5012960;28;20505;-68
2023/08/08 00:08:16;;;;;;;557.83;532.47;;;12.20;99.90;;;;;;5012796;28;20456;-68
2023/08/08 00:10:43;;;;;;;558.10;533.13;;;12.20;99.90;;;;;;5013200;28;20953;-68
2023/08/08 00:13:10;;;;;;;558.07;531.87;;;12.10;99.90;;;;;;5012679;28;20461;-68
2023/08/08 00:15:37;;;;;;;591.23;563.00;;;12.10;99.90;;;;;;5012861;28;20598;-68
2023/08/08 00:18:04;;;;;;;589.67;561.83;;;12.00;99.90;;;;;;5012722;28;20461;-68
2023/08/08 00:20:31;;;;;;;612.53;582.10;;;12.00;99.90;;;;;;5012670;28;20973;-68
2023/08/08 00:22:57;;;;;;;616.80;586.43;;;12.00;99.90;;;;;;5013044;28;20457;-68
2023/08/08 00:25:26;;;;;;;631.97;600.47;;;12.00;99.90;;;;;;5012827;28;20567;-68
2023/08/08 00:27:52;;;;;;;619.17;588.30;;;11.90;99.90;;;;;;5012104;28;20460;-68
2023/08/08 00:30:19;;;;;;;615.53;585.13;;;12.00;99.90;;;;;;5012775;28;20453;-68
2023/08/08 00:32:46;;;;;;;634.90;602.90;;;12.00;99.90;;;;;;5012211;28;20454;-68
2023/08/08 00:35:13;;;;;;;614.83;585.00;;;11.90;99.90;;;;;;5012464;28;20556;-68
2023/08/08 00:37:40;;;;;;;640.23;607.13;;;11.90;99.90;;;;;;5012736;28;20537;-68
2023/08/08 00:40:08;;;;;;;605.60;576.10;;;11.90;99.90;;;;;;5012548;28;20456;-68
2023/08/08 00:42:36;;;;;;;600.63;571.60;;;12.00;99.90;;;;;;5012624;28;20448;-68
2023/08/08 00:45:04;;;;;;;558.93;533.10;;;12.00;99.90;;;;;;5012510;28;20532;-68
2023/08/08 00:47:32;;;;;;;568.90;542.30;;;12.20;99.90;;;;;;5012275;28;20456;-68
2023/08/08 00:50:00;;;;;;;559.33;533.00;;;12.20;99.90;;;;;;5012122;28;20456;-68
2023/08/08 00:52:27;;;;;;;552.07;526.17;;;12.30;99.90;;;;;;5012439;28;20515;-68
2023/08/08 00:54:54;;;;;;;548.10;523.43;;;12.30;99.90;;;;;;5012415;28;20533;-68
2023/08/08 00:57:21;;;;;;;521.73;498.90;;;12.40;99.90;;;;;;5012376;28;20528;-68
2023/08/08 00:59:49;;;;;;;500.17;478.27;;;12.40;99.90;;;;;;5012164;28;20457;-68
2023/08/08 01:02:16;;;;;;;488.13;467.87;;;12.40;99.90;;;;;;5012023;28;20454;-68
2023/08/08 01:04:43;;;;;;;470.27;451.67;;;12.40;99.90;;;;;;5012491;28;20449;-69
2023/08/08 01:07:28;;;;;;;441.40;424.43;;;12.50;99.90;;;;;;5012343;28;20481;-68
2023/08/08 01:10:04;;;;;;;431.83;415.37;;;12.60;99.90;;;;;;5012315;28;20485;-68
2023/08/08 01:12:31;;;;;;;413.53;398.03;;;12.60;99.90;;;;;;5012140;28;20933;-68
2023/08/08 01:15:00;;;;;;;405.90;390.40;;;12.60;99.90;;;;;;5012373;28;20458;-68
2023/08/08 01:17:28;;;;;;;385.97;371.90;;;12.60;99.90;;;;;;5012084;28;20454;-68
2023/08/08 01:19:54;;;;;;;377.13;363.13;;;12.60;99.90;;;;;;5012390;28;20455;-68
2023/08/08 01:22:26;;;;;;;378.90;365.33;;;12.50;99.90;;;;;;5012076;28;20453;-68
2023/08/08 01:24:56;;;;;;;385.77;371.27;;;12.50;99.90;;;;;;5012223;28;20511;-68
2023/08/08 01:27:23;;;;;;;403.80;389.00;;;12.50;99.90;;;;;;5011977;28;20500;-68
2023/08/08 01:29:50;;;;;;;393.97;379.57;;;12.50;99.90;;;;;;5012223;28;20453;-68
2023/08/08 01:32:17;;;;;;;409.20;394.07;;;12.50;99.90;;;;;;5012019;28;20449;-68
2023/08/08 01:34:44;;;;;;;432.67;415.93;;;12.40;99.90;;;;;;5012221;28;20453;-68
2023/08/08 01:37:18;;;;;;;442.07;424.73;;;12.40;99.90;;;;;;5012252;28;20446;-68
2023/08/08 01:39:47;;;;;;;449.30;431.83;;;12.40;99.90;;;;;;5013384;28;20464;-68
2023/08/08 01:42:17;;;;;;;473.63;454.53;;;12.40;99.90;;;;;;5015787;28;20460;-68
2023/08/08 01:44:44;;;;;;;464.20;445.63;;;12.40;99.90;;;;;;5015651;28;20453;-68
2023/08/08 01:47:11;;;;;;;475.13;456.17;;;12.40;99.90;;;;;;5015577;28;20853;-68
2023/08/08 01:49:38;;;;;;;472.87;454.03;;;12.40;99.90;;;;;;5015736;28;20860;-68
2023/08/08 01:52:06;;;;;;;455.03;437.03;;;12.40;99.90;;;;;;5014878;28;20461;-68
2023/08/08 01:54:32;;;;;;;458.47;440.47;;;12.40;99.90;;;;;;5015475;28;20449;-69
2023/08/08 01:56:59;;;;;;;453.03;435.27;;;12.50;99.90;;;;;;5015533;28;20449;-68
2023/08/08 01:59:28;;;;;;;472.13;453.30;;;12.40;99.90;;;;;;5015676;28;20492;-68
2023/08/08 02:01:54;;;;;;;467.67;449.00;;;12.40;99.90;;;;;;5015143;28;20945;-68
2023/08/08 02:04:21;;;;;;;466.93;448.07;;;12.40;99.90;;;;;;5015341;28;20463;-68
2023/08/08 02:06:48;;;;;;;486.77;466.90;;;12.30;99.90;;;;;;5015111;28;20483;-68
2023/08/08 02:09:15;;;;;;;528.40;505.77;;;12.20;99.90;;;;;;5015310;28;20456;-68
2023/08/08 02:11:42;;;;;;;510.30;488.87;;;12.30;99.90;;;;;;5014864;28;20456;-68
2023/08/08 02:14:09;;;;;;;507.10;485.90;;;12.40;99.90;;;;;;5015051;28;20485;-68
2023/08/08 02:16:39;;;;;;;469.63;450.63;;;12.40;99.90;;;;;;5015401;28;20453;-68
2023/08/08 02:19:06;;;;;;;444.43;427.07;;;12.50;99.90;;;;;;5015123;28;20552;-68
2023/08/08 02:21:33;;;;;;;420.90;404.70;;;12.60;99.90;;;;;;5014667;28;20450;-68
2023/08/08 02:23:59;;;;;;;407.60;392.03;;;12.60;99.90;;;;;;5014940;28;20871;-68
2023/08/08 02:26:27;;;;;;;389.53;375.23;;;12.70;99.90;;;;;;5014664;28;20487;-68
2023/08/08 02:28:53;;;;;;;363.40;350.33;;;12.60;99.90;;;;;;5014870;28;20446;-68
2023/08/08 02:31:21;;;;;;;366.30;353.40;;;12.60;99.90;;;;;;5014704;28;20453;-68
2023/08/08 02:33:51;;;;;;;357.83;345.30;;;12.60;99.90;;;;;;5014956;28;20753;-68
2023/08/08 02:36:18;;;;;;;360.33;347.47;;;12.60;99.90;;;;;;5014829;28;20446;-68
2023/08/08 02:38:45;;;;;;;386.23;372.17;;;12.50;99.90;;;;;;5014760;28;20481;-68
2023/08/08 02:41:12;;;;;;;392.23;377.57;;;12.50;99.90;;;;;;5014225;28;20540;-68
2023/08/08 02:43:38;;;;;;;416.50;400.67;;;12.40;99.90;;;;;;5014593;28;20457;-68
2023/08/08 02:46:05;;;;;;;416.67;401.17;;;12.50;99.90;;;;;;5014575;28;20481;-68
2023/08/08 02:48:32;;;;;;;451.33;433.57;;;12.40;99.90;;;;;;5014405;28;20454;-68
2023/08/08 02:51:00;;;;;;;467.33;448.53;;;12.30;99.90;;;;;;5013494;28;20496;-68
2023/08/08 02:53:27;;;;;;;511.03;489.53;;;12.30;99.90;;;;;;5014220;28;20541;-68
2023/08/08 02:55:54;;;;;;;524.00;501.83;;;12.30;99.90;;;;;;5014335;28;20454;-68
2023/08/08 02:58:21;;;;;;;532.27;508.90;;;12.30;99.90;;;;;;5014169;28;20941;-68
2023/08/08 03:00:48;;;;;;;530.03;506.97;;;12.30;99.90;;;;;;5014150;28;20974;-67
2023/08/08 03:03:15;;;;;;;530.97;507.97;;;12.30;99.90;;;;;;5014093;28;20459;-68
2023/08/08 03:05:41;;;;;;;551.00;526.00;;;12.40;99.90;;;;;;5014095;28;20453;-69
2023/08/08 03:08:10;;;;;;;509.50;487.23;;;12.30;99.90;;;;;;5014037;28;20540;-67
2023/08/08 03:10:36;;;;;;;555.17;529.73;;;12.40;99.90;;;;;;5013974;28;20461;-68
2023/08/08 03:13:03;;;;;;;565.23;540.07;;;12.30;99.90;;;;;;5014183;28;20453;-68
2023/08/08 03:15:30;;;;;;;588.07;560.57;;;12.30;99.90;;;;;;5013862;28;20445;-68
2023/08/08 03:17:57;;;;;;;602.23;573.47;;;12.30;99.90;;;;;;5013869;28;21020;-68
2023/08/08 03:20:24;;;;;;;613.60;583.40;;;12.30;99.90;;;;;;5013697;28;20540;-68
2023/08/08 03:22:51;;;;;;;635.27;604.07;;;12.30;99.90;;;;;;5013782;28;20449;-68
2023/08/08 03:25:19;;;;;;;655.07;621.97;;;12.30;99.90;;;;;;5013737;28;20456;-67
2023/08/08 03:27:46;;;;;;;678.77;643.70;;;12.20;99.90;;;;;;5013776;28;20572;-68
2023/08/08 03:30:14;;;;;;;648.60;615.57;;;12.20;99.90;;;;;;5013587;28;20962;-68
2023/08/08 03:32:41;;;;;;;673.90;639.53;;;12.20;99.90;;;;;;5014095;28;20940;-68
2023/08/08 03:35:09;;;;;;;677.87;642.87;;;12.20;99.90;;;;;;5013501;28;20454;-68
2023/08/08 03:37:36;;;;;;;687.20;651.83;;;12.20;99.90;;;;;;5013588;28;20449;-68
2023/08/08 03:40:03;;;;;;;698.40;662.00;;;12.20;99.90;;;;;;5013483;28;20457;-68
2023/08/08 03:42:31;;;;;;;706.67;668.17;;;12.30;99.90;;;;;;5013532;28;20453;-68
2023/08/08 03:44:58;;;;;;;721.53;681.97;;;12.20;99.90;;;;;;5013311;28;20457;-68
2023/08/08 03:47:25;;;;;;;714.97;675.73;;;12.20;99.90;;;;;;5013197;28;20481;-68
2023/08/08 03:49:54;;;;;;;754.07;710.37;;;12.20;99.90;;;;;;5013088;28;20454;-69
2023/08/08 03:52:21;;;;;;;744.27;703.07;;;12.20;99.90;;;;;;5013378;28;20453;-68
2023/08/08 03:54:48;;;;;;;768.67;723.80;;;12.20;99.90;;;;;;5013371;28;20457;-68
2023/08/08 03:57:15;;;;;;;769.13;723.90;;;12.20;99.90;;;;;;5013322;28;20835;-68
2023/08/08 03:59:43;;;;;;;764.80;721.03;;;12.20;99.90;;;;;;5013008;28;20540;-68
2023/08/08 04:02:10;;;;;;;784.77;737.87;;;12.20;99.90;;;;;;5012628;28;20574;-68
2023/08/08 04:04:38;;;;;;;765.47;720.10;;;12.30;99.90;;;;;;5012698;28;20464;-68
2023/08/08 04:07:05;;;;;;;780.07;734.10;;;12.30;99.90;;;;;;5012931;28;21011;-68
2023/08/08 04:09:32;;;;;;;783.27;737.17;;;12.30;99.90;;;;;;5013164;28;20511;-68
2023/08/08 04:11:59;;;;;;;808.70;760.10;;;12.20;99.90;;;;;;5012709;28;20964;-68
2023/08/08 04:14:26;;;;;;;824.50;773.97;;;12.20;99.90;;;;;;5012878;28;21005;-67
2023/08/08 04:16:54;;;;;;;828.33;775.27;;;12.10;99.90;;;;;;5012877;28;20824;-68
2023/08/08 04:19:21;;;;;;;843.37;789.57;;;12.10;99.90;;;;;;5012880;28;20552;-68
2023/08/08 04:21:48;;;;;;;834.60;780.90;;;12.20;99.90;;;;;;5012867;28;20460;-67
2023/08/08 04:24:15;;;;;;;838.50;785.53;;;12.20;99.90;;;;;;5012899;28;20824;-67
2023/08/08 04:26:42;;;;;;;849.30;795.83;;;12.20;99.90;;;;;;5012744;28;20485;-68
2023/08/08 04:29:08;;;;;;;855.60;801.30;;;12.30;99.90;;;;;;5012592;28;20453;-68
2023/08/08 04:31:35;;;;;;;844.80;789.87;;;12.30;99.90;;;;;;5012317;28;20453;-67
2023/08/08 04:34:04;;;;;;;830.70;776.60;;;12.30;99.90;;;;;;5012942;28;20459;-68
2023/08/08 04:36:31;;;;;;;845.33;790.63;;;12.40;99.90;;;;;;5012714;28;20446;-67
2023/08/08 04:38:58;;;;;;;836.77;782.80;;;12.50;99.90;;;;;;5012158;28;20453;-68
2023/08/08 04:41:25;;;;;;;829.10;776.30;;;12.60;99.90;;;;;;5011918;28;20511;-67
2023/08/08 04:43:51;;;;;;;815.50;763.93;;;12.60;99.90;;;;;;5011279;28;20531;-67
2023/08/08 04:46:18;;;;;;;809.57;759.30;;;12.70;99.90;;;;;;5012419;28;20538;-68
2023/08/08 04:48:45;;;;;;;809.73;759.67;;;12.80;99.90;;;;;;5011952;28;20476;-67
2023/08/08 04:51:13;;;;;;;797.67;749.03;;;12.90;99.90;;;;;;5012084;28;20548;-68
2023/08/08 04:53:40;;;;;;;788.37;740.90;;;13.00;99.90;;;;;;5011952;28;20460;-68
2023/08/08 04:56:07;;;;;;;779.77;733.17;;;13.00;99.90;;;;;;5012196;28;20484;-68
2023/08/08 04:58:34;;;;;;;786.83;740.13;;;13.10;99.90;;;;;;5011947;28;20481;-67
2023/08/08 05:01:01;;;;;;;763.37;719.20;;;13.10;99.90;;;;;;5011644;28;20445;-67
2023/08/08 05:03:28;;;;;;;749.00;706.27;;;13.20;99.90;;;;;;5019182;28;20496;-67
2023/08/08 05:05:54;;;;;;;735.33;693.20;;;13.20;99.90;;;;;;5020537;28;20450;-68
2023/08/08 05:08:22;;;;;;;717.53;677.80;;;13.30;99.90;;;;;;5022180;28;20504;-68
2023/08/08 05:10:49;;;;;;;683.90;647.27;;;13.30;99.90;;;;;;5021999;28;20464;-67
2023/08/08 05:13:16;;;;;;;692.07;654.57;;;13.40;99.90;;;;;;5020278;28;20466;-68
2023/08/08 05:15:43;;;;;;;697.03;660.17;;;13.40;99.90;;;;;;5025475;28;20444;-67
2023/08/08 05:18:10;;;;;;;679.97;643.80;;;13.40;99.90;;;;;;5025877;28;20934;-68
2023/08/08 05:20:37;;;;;;;675.63;640.23;;;13.40;99.90;;;;;;5032943;28;20451;-68
2023/08/08 05:23:04;;;;;;;688.03;651.83;;;13.50;99.90;;;;;;5035396;28;20824;-68
2023/08/08 05:25:32;;;;;;;667.47;632.67;;;13.50;99.90;;;;;;5035486;28;20933;-68
2023/08/08 05:27:59;;;;;;;638.17;605.00;;;13.60;99.90;;;;;;5035909;28;20488;-68
2023/08/08 05:30:26;;;;;;;617.90;586.07;;;13.60;99.90;;;;;;5035643;28;20452;-68
2023/08/08 05:32:52;;;;;;;585.03;555.90;;;13.70;99.90;;;;;;5035306;28;20456;-67
2023/08/08 05:35:19;;;;;;;501.23;477.50;;;13.80;99.90;;;;;;5035652;28;20816;-68
2023/08/08 05:37:46;;;;;;;419.93;401.80;;;14.10;99.90;;;;;;5035275;28;20453;-68
2023/08/08 05:40:13;;;;;;;369.77;355.23;;;14.20;99.90;;;;;;5035239;28;20458;-68
2023/08/08 05:42:41;;;;;;;351.60;337.97;;;14.40;99.90;;;;;;5035154;28;20547;-68
2023/08/08 05:45:09;;;;;;;302.83;291.43;;;14.50;99.90;;;;;;5035510;28;20827;-68
2023/08/08 05:47:36;;;;;;;278.37;268.27;;;14.70;99.90;;;;;;5028374;28;20485;-68
2023/08/08 05:50:03;;;;;;;236.43;227.27;;;14.80;99.90;;;;;;5014996;28;20453;-68
2023/08/08 05:52:30;;;;;;;136.53;131.40;;;14.90;99.90;;;;;;5014107;28;20453;-68
2023/08/08 05:54:59;;;;;;;134.03;129.00;;;15.00;99.70;;;;;;5014384;28;20567;-68
2023/08/08 05:57:26;;;;;;;110.40;105.93;;;15.10;99.70;;;;;;5014812;28;20452;-67
2023/08/08 05:59:54;;;;;;;98.20;94.10;;;15.10;99.70;;;;;;5014839;28;20457;-68
2023/08/08 06:02:21;;;;;;;97.83;93.53;;;15.10;99.70;;;;;;5014737;28;20449;-69
2023/08/08 06:04:48;;;;;;;66.60;63.37;;;15.20;99.80;;;;;;5015156;28;20483;-68
2023/08/08 06:07:15;;;;;;;71.10;68.00;;;15.30;99.80;;;;;;5014606;28;20477;-68
2023/08/08 06:09:41;;;;;;;45.63;43.43;;;15.40;99.80;;;;;;5014493;28;20485;-68
2023/08/08 06:12:09;;;;;;;23.57;21.87;;;15.50;97.50;;;;;;5014656;28;20455;-68
2023/08/08 06:14:36;;;;;;;20.50;18.63;;;15.60;96.70;;;;;;5014750;28;20453;-67
2023/08/08 06:17:05;;;;;;;16.57;14.97;;;15.70;95.90;;;;;;5014627;28;20441;-68
2023/08/08 06:19:32;;;;;;;14.60;13.20;;;15.80;95.10;;;;;;5014622;28;20449;-68
2023/08/08 06:21:59;;;;;;;16.83;9.50;;;15.90;94.90;;;;;;5014476;28;20454;-68
2023/08/08 06:24:25;;;;;;;20.60;10.17;;;15.90;93.40;;;;;;5014325;28;20449;-68
2023/08/08 06:26:52;;;;;;;13.30;8.30;;;15.90;93.40;;;;;;5013554;28;20455;-70
2023/08/08 06:29:19;;;;;;;10.60;9.03;;;15.90;93.80;;;;;;5014421;28;20449;-68
2023/08/08 06:31:46;;;;;;;12.10;8.00;;;15.90;93.40;;;;;;5014218;28;20851;-68
2023/08/08 06:34:15;;;;;;;12.20;9.50;;;15.90;93.40;;;;;;5014259;28;20467;-67
2023/08/08 06:36:42;;;;;;;13.43;8.57;;;16.00;93.50;;;;;;5014247;28;21019;-68
2023/08/08 06:39:11;;;;;;;12.05;8.80;;;16.20;93.50;;;;;;5014114;28;20447;-68
2023/08/08 06:41:38;;;;;;;11.33;6.13;;;16.30;93.60;;;;;;5013979;28;20238;-69
2023/08/08 06:44:05;;;;;;;19.27;6.23;;;16.40;93.60;;;;;;5013495;28;20450;-68
2023/08/08 06:46:32;;;;;;;8.43;5.50;;;16.40;92.20;;;;;;5013257;28;20989;-69
2023/08/08 06:48:59;;;;;;;8.23;5.50;;;16.40;93.30;;;;;;5014049;28;20478;-67
2023/08/08 06:51:28;;;;;;;15.30;6.70;;;16.30;91.90;;;;;;5013730;28;20520;-69
2023/08/08 06:53:55;;;;;;;9.30;5.93;;;16.30;93.40;;;;;;5014539;28;20459;-69
2023/08/08 06:56:21;;;;;;;12.47;7.60;;;16.10;93.40;;;;;;5014589;28;20488;-69
2023/08/08 06:58:48;;;;;;;10.63;6.60;;;16.40;93.60;;;;;;5014405;28;20457;-69
2023/08/08 07:01:15;;;;;;;15.67;5.87;;;16.60;93.50;;;;;;5014127;28;20496;-69
2023/08/08 07:03:43;;;;;;;18.40;5.23;;;16.60;90.60;;;;;;5014084;28;20458;-69
2023/08/08 07:06:10;;;;;;;14.80;5.27;;;16.70;91.30;;;;;;5014309;28;20460;-69
2023/08/08 07:08:39;;;;;;;12.83;6.10;;;16.60;90.30;;;;;;5014113;28;20482;-69
2023/08/08 07:11:06;;;;;;;21.77;6.10;;;16.80;91.00;;;;;;5014099;28;20461;-68
2023/08/08 07:13:33;;;;;;;9.50;5.30;;;16.80;90.30;;;;;;5014080;28;20480;-68
2023/08/08 07:16:00;;;;;;;9.57;5.13;;;16.80;90.30;;;;;;5013918;28;20539;-69
2023/08/08 07:18:27;;;;;;;10.97;5.50;;;17.10;90.50;;;;;;5013826;28;20467;-68
2023/08/08 07:20:56;;;;;;;11.63;5.20;;;17.20;88.60;;;;;;5013864;28;20953;-69
2023/08/08 07:23:23;;;;;;;14.73;4.57;;;17.50;86.90;;;;;;5013767;28;20449;-69
2023/08/08 07:25:51;;;;;;;10.40;4.87;;;17.60;83.90;;;;;;5013930;28;20542;-69
2023/08/08 07:28:18;;;;;;;9.17;5.20;;;17.70;84.00;;;;;;5013628;28;20482;-69
2023/08/08 07:30:45;;;;;;;8.63;4.80;;;17.60;83.80;;;;;;5013552;28;20885;-69
2023/08/08 07:33:13;;;;;;;9.40;4.00;;;17.50;83.80;;;;;;5013636;28;20541;-69
2023/08/08 07:35:40;;;;;;;10.97;4.50;;;17.60;83.90;;;;;;5013639;28;20454;-69
2023/08/08 07:38:07;;;;;;;11.97;4.50;;;17.60;83.90;;;;;;5013498;28;21017;-68
2023/08/08 07:40:34;;;;;;;9.97;4.47;;;17.80;84.10;;;;;;5013526;28;20453;-68
2023/08/08 07:43:02;;;;;;;15.27;5.00;;;17.80;84.10;;;;;;5013292;28;20485;-69
2023/08/08 07:45:29;;;;;;;17.07;5.30;;;17.80;84.10;;;;;;5013707;28;20536;-68
2023/08/08 07:47:55;;;;;;;10.63;4.50;;;18.20;84.40;;;;;;5013551;28;20473;-68
2023/08/08 07:50:22;;;;;;;16.23;5.43;;;18.20;84.30;;;;;;5013403;28;20487;-69
2023/08/08 07:52:49;;;;;;;12.63;4.90;;;18.20;84.40;;;;;;5013223;28;20456;-69
2023/08/08 07:55:16;;;;;;;15.40;5.20;;;18.60;84.80;;;;;;5013336;28;20583;-69
2023/08/08 07:57:43;;;;;;;10.33;4.43;;;18.90;84.50;;;;;;5013425;28;20445;-69
2023/08/08 08:00:12;;;;;;;13.63;4.57;;;18.80;80.60;;;;;;5013415;28;20504;-69
2023/08/08 08:02:39;;;;;;;9.13;3.83;;;18.70;79.90;;;;;;5013306;28;21006;-69
2023/08/08 08:05:07;;;;;;;13.93;5.10;;;18.60;80.40;;;;;;5013280;28;20450;-69
2023/08/08 08:07:35;;;;;;;10.80;4.37;;;18.30;81.00;;;;;;5013209;28;20450;-69
2023/08/08 08:10:02;;;;;;;13.70;5.43;;;18.00;81.90;;;;;;5013002;28;20553;-69
2023/08/08 08:12:30;;;;;;;15.17;4.40;;;17.90;84.20;;;;;;5013090;28;20480;-69
2023/08/08 08:14:57;;;;;;;14.87;4.83;;;17.70;84.80;;;;;;5012922;28;20946;-67
2023/08/08 08:17:27;;;;;;;11.70;5.10;;;17.40;83.70;;;;;;5012773;28;20465;-69
2023/08/08 08:19:54;;;;;;;11.50;5.10;;;17.30;83.60;;;;;;5012978;28;20472;-69
2023/08/08 08:22:21;;;;;;;13.73;5.40;;;17.00;83.40;;;;;;5012619;28;20962;-69
2023/08/08 08:24:48;;;;;;;15.80;5.73;;;16.80;83.20;;;;;;5012702;28;20454;-70
2023/08/08 08:27:15;;;;;;;10.50;5.60;;;16.70;87.50;;;;;;5013040;28;20449;-69
2023/08/08 08:29:42;;;;;;;19.63;6.40;;;16.80;90.30;;;;;;5012854;28;20575;-69
2023/08/08 08:32:08;;;;;;;11.23;7.07;;;16.90;87.20;;;;;;5012739;28;20544;-69
2023/08/08 08:34:37;;;;;;;10.93;5.67;;;17.00;87.10;;;;;;5012732;28;20453;-68
2023/08/08 08:37:04;;;;;;;13.70;6.47;;;16.90;86.60;;;;;;5012610;28;20489;-70
2023/08/08 08:39:31;;;;;;;9.40;6.33;;;16.90;87.20;;;;;;5012575;28;20813;-69
2023/08/08 08:42:04;;;;;;;17.23;7.17;;;16.70;90.30;;;;;;5012390;28;20993;-69
2023/08/08 08:44:32;;;;;;;11.63;8.03;;;16.50;90.20;;;;;;5012682;28;20455;-66
2023/08/08 08:47:02;;;;;;;15.30;11.27;;;15.80;99.90;;;;;;5012657;28;20446;-65
2023/08/08 08:49:30;;;;;;;20.23;18.33;;;15.40;99.90;;;;;;5011981;28;20477;-65
2023/08/08 08:52:00;;;;;;;114.83;110.33;;;15.10;99.90;;;;;;5012211;28;20454;-65
2023/08/08 08:54:29;;;;;;;308.80;299.30;;;14.90;99.90;;;;;;5013121;28;20461;-65
2023/08/08 08:56:57;;;;;;;276.07;267.40;;;14.90;99.90;;;;;;5012656;28;20536;-65
2023/08/08 08:59:24;;;;;;;413.07;400.07;;;14.80;99.90;;;;;;5012436;28;20455;-65
2023/08/08 09:01:52;;;;;;;642.03;618.73;;;14.80;99.90;;;;;;5012203;28;20556;-66
2023/08/08 09:04:21;;;;;;;526.30;508.33;;;14.80;99.90;;;;;;5012347;28;20457;-65
2023/08/08 09:06:49;;;;;;;698.93;669.20;;;14.90;99.90;;;;;;5012078;28;20969;-65
2023/08/08 09:09:21;;;;;;;799.10;759.13;;;14.80;99.90;;;;;;5012683;28;20480;-66
2023/08/08 09:11:49;;;;;;;786.77;748.57;;;14.80;99.90;;;;;;5008456;28;20465;-66
2023/08/08 09:14:18;;;;;;;885.73;836.83;;;14.70;99.90;;;;;;4992909;28;20459;-67
2023/08/08 09:16:46;;;;;;;1051.27;982.17;;;14.50;99.90;;;;;;4992641;28;20458;-66
2023/08/08 09:19:13;;;;;;;1045.43;979.03;;;14.40;99.90;;;;;;5003219;28;20468;-66
2023/08/08 09:21:40;;;;;;;1041.57;973.40;;;14.40;99.90;;;;;;5012139;28;20881;-66
2023/08/08 09:24:07;;;;;;;1036.17;969.17;;;14.40;99.90;;;;;;5012484;28;20471;-66
2023/08/08 09:26:35;;;;;;;1055.13;984.33;;;14.60;99.90;;;;;;5012199;28;20464;-66
2023/08/08 09:29:02;;;;;;;1055.83;988.77;;;14.70;99.90;;;;;;5012035;28;20477;-65
2023/08/08 09:31:30;;;;;;;991.70;924.27;;;14.80;99.90;;;;;;5011407;28;20479;-66
2023/08/08 09:33:59;;;;;;;940.13;874.73;;;15.00;99.90;;;;;;5010918;28;20511;-66
2023/08/08 09:36:25;;;;;;;934.90;870.23;;;15.20;99.90;;;;;;5011245;28;20950;-66
2023/08/08 09:38:52;;;;;;;902.50;842.07;;;15.50;99.90;;;;;;5010806;28;20946;-67
2023/08/08 09:41:20;;;;;;;918.63;854.20;;;15.70;99.90;;;;;;5011285;28;20539;-67
2023/08/08 09:43:50;;;;;;;861.57;804.87;;;16.10;99.90;;;;;;5011320;28;20930;-67
2023/08/08 09:46:17;;;;;;;840.70;792.10;;;16.20;99.90;;;;;;5011636;28;20458;-67
2023/08/08 09:48:44;;;;;;;767.10;731.67;;;16.40;99.90;;;;;;5012425;28;20492;-67
2023/08/08 09:51:11;;;;;;;743.57;711.57;;;16.40;99.90;;;;;;5012080;28;20509;-66
2023/08/08 09:53:40;;;;;;;186.13;179.23;;;16.60;99.90;;;;;;5012282;28;20457;-67
2023/08/08 09:56:08;;;;;;;343.77;332.37;;;16.70;99.90;;;;;;5012246;28;20926;-68
2023/08/08 09:58:35;;;;;;;262.27;252.37;;;16.90;99.90;;;;;;5012136;28;20450;-67
2023/08/08 10:01:04;;;;;;;114.83;110.13;;;17.00;99.90;;;;;;5012452;28;20457;-67
2023/08/08 10:03:33;;;;;;;91.03;86.63;;;17.10;99.90;;;;;;5015929;28;20886;-67
2023/08/08 10:06:00;;;;;;;53.00;50.50;;;17.40;99.90;;;;;;5015614;28;20450;-67
2023/08/08 10:08:27;;;;;;;32.60;30.53;;;17.60;97.50;;;;;;5014805;28;20473;-67
2023/08/08 10:10:54;;;;;;;24.93;23.23;;;17.90;96.90;;;;;;5014845;28;20449;-68
2023/08/08 10:13:21;;;;;;;46.63;44.07;;;18.00;94.30;;;;;;5014983;28;20471;-69
2023/08/08 10:15:48;;;;;;;20.13;18.10;;;18.40;94.50;;;;;;5015086;28;20577;-70
2023/08/08 10:18:18;;;;;;;15.53;13.37;;;18.40;92.60;;;;;;5014735;28;20500;-68
2023/08/08 10:20:45;;;;;;;18.60;11.40;;;18.30;92.40;;;;;;5015037;28;20519;-68
2023/08/08 10:23:12;;;;;;;13.60;12.30;;;18.20;90.90;;;;;;5015913;28;20449;-69
2023/08/08 10:25:45;;;;;;;13.97;12.97;;;18.00;90.80;;;;;;5016502;28;20453;-68
2023/08/08 10:28:14;;;;;;;15.87;14.30;;;17.80;92.80;;;;;;5015576;28;20485;-69
2023/08/08 10:30:46;;;;;;;15.80;14.50;;;17.70;91.80;;;;;;5016031;28;20458;-69
2023/08/08 10:33:19;;;;;;;14.00;12.70;;;17.60;94.10;;;;;;5016360;28;20449;-69
2023/08/08 10:35:58;;;;;;;17.70;16.10;;;17.50;90.70;;;;;;5015980;28;20453;-69
2023/08/08 10:38:25;;;;;;;21.13;19.37;;;17.60;93.00;;;;;;5015746;28;20461;-69
2023/08/08 10:40:58;;;;;;;13.77;12.43;;;17.80;92.70;;;;;;5016168;28;20491;-68
2023/08/08 10:43:28;;;;;;;12.30;7.57;;;18.00;90.60;;;;;;5015793;28;20938;-69
2023/08/08 10:46:00;;;;;;;14.37;7.37;;;17.80;84.90;;;;;;5016159;28;20441;-69
2023/08/08 10:48:28;;;;;;;11.50;7.50;;;17.90;84.20;;;;;;5015628;28;20477;-69
2023/08/08 10:50:56;;;;;;;10.80;6.70;;;18.00;84.20;;;;;;5015931;28;20450;-69
2023/08/08 10:53:26;;;;;;;7.80;5.60;;;18.30;84.50;;;;;;5015988;28;20453;-70
2023/08/08 10:56:00;;;;;;;11.20;5.70;;;18.40;84.60;;;;;;5015599;28;20449;-68
2023/08/08 10:58:37;;;;;;;13.80;4.97;;;18.70;84.90;;;;;;5015730;28;20433;-69
2023/08/08 11:01:07;;;;;;;11.50;5.57;;;18.70;77.30;;;;;;5015692;28;20930;-69
2023/08/08 11:03:37;;;;;;;10.73;3.90;;;18.60;82.00;;;;;;5015837;28;20433;-70
2023/08/08 11:06:04;;;;;;;8.13;4.60;;;18.30;76.60;;;;;;5015408;28;20457;-70
2023/08/08 11:08:32;;;;;;;12.13;4.03;;;18.20;76.80;;;;;;5015055;28;20557;-71
2023/08/08 11:10:59;;;;;;;8.60;4.53;;;18.10;84.30;;;;;;5015611;28;20481;-69
2023/08/08 11:13:27;;;;;;;8.70;4.23;;;17.80;84.00;;;;;;5015187;28;20445;-69
2023/08/08 11:15:54;;;;;;;12.73;4.10;;;17.70;84.00;;;;;;5015567;28;20457;-68
2023/08/08 11:18:21;;;;;;;10.70;5.07;;;17.50;83.80;;;;;;5014750;28;20472;-69
2023/08/08 11:20:50;;;;;;;6.93;4.77;;;17.30;83.60;;;;;;5015331;28;20508;-69
2023/08/08 11:23:18;;;;;;;11.10;5.93;;;17.10;88.10;;;;;;5015041;28;20458;-69
2023/08/08 11:25:46;;;;;;;10.80;6.10;;;16.90;90.40;;;;;;5015403;28;20449;-69
2023/08/08 11:28:14;;;;;;;10.00;6.83;;;16.80;90.30;;;;;;5014591;28;20808;-69
2023/08/08 11:30:43;;;;;;;15.77;6.70;;;16.90;90.40;;;;;;5014849;28;20477;-68
2023/08/08 11:33:11;;;;;;;12.20;6.50;;;17.10;90.50;;;;;;5015235;28;20972;-70
2023/08/08 11:35:38;;;;;;;10.60;5.27;;;17.20;89.00;;;;;;5015194;28;20449;-70
2023/08/08 11:38:07;;;;;;;8.70;4.53;;;17.30;83.60;;;;;;5014697;28;20552;-69
2023/08/08 11:40:34;;;;;;;10.70;6.03;;;17.40;83.70;;;;;;5014917;28;20488;-69
2023/08/08 11:43:01;;;;;;;16.10;7.83;;;17.30;83.60;;;;;;5014758;28;20456;-69
2023/08/08 11:45:29;;;;;;;13.40;12.10;;;17.20;90.50;;;;;;5015065;28;20464;-69
2023/08/08 11:47:56;;;;;;;25.63;23.33;;;16.90;93.80;;;;;;5014255;28;20457;-69
2023/08/08 11:50:27;;;;;;;117.57;112.70;;;16.50;93.70;;;;;;5014930;28;20516;-70
2023/08/08 11:52:55;;;;;;;126.37;121.67;;;16.40;97.10;;;;;;5014920;28;20441;-69
2023/08/08 11:55:28;;;;;;;157.87;151.60;;;16.40;97.90;;;;;;5014545;28;20460;-69
2023/08/08 11:57:56;;;;;;;194.17;187.57;;;16.50;97.20;;;;;;5014385;28;20453;-69
2023/08/08 12:00:27;;;;;;;170.43;164.50;;;16.60;99.80;;;;;;5014551;28;20519;-70
2023/08/08 12:02:54;;;;;;;54.77;52.03;;;16.60;98.20;;;;;;5015536;28;20787;-69
2023/08/08 12:05:22;;;;;;;123.63;118.63;;;16.40;97.90;;;;;;5014285;28;20941;-68
2023/08/08 12:07:50;;;;;;;206.37;199.03;;;16.20;99.80;;;;;;5014185;28;20459;-69
2023/08/08 12:10:19;;;;;;;215.03;207.73;;;16.10;99.90;;;;;;5014617;28;20491;-69
2023/08/08 12:12:52;;;;;;;283.13;273.53;;;15.90;99.90;;;;;;5014537;28;20820;-69
2023/08/08 12:15:21;;;;;;;468.47;450.80;;;15.80;99.90;;;;;;5014450;28;20433;-68
2023/08/08 12:17:48;;;;;;;444.50;427.90;;;15.50;99.90;;;;;;5014014;28;20515;-68
2023/08/08 12:20:16;;;;;;;755.23;720.40;;;15.40;99.90;;;;;;5013898;28;20450;-70